createdAt,value
2023-04-25T00:00:00.712Z,0
2023-04-25T00:05:00.772Z,0
2023-04-25T00:10:00.549Z,0
2023-04-25T00:15:00.636Z,0
2023-04-25T00:20:00.562Z,0
2023-04-25T00:25:00.571Z,0
2023-04-25T00:30:00.531Z,0
2023-04-25T00:35:00.497Z,0
2023-04-25T00:40:00.557Z,0
2023-04-25T00:45:00.495Z,0
2023-04-25T00:50:00.565Z,0
2023-04-25T00:55:00.580Z,0
2023-04-25T01:00:00.524Z,0
2023-04-25T01:05:00.504Z,0
2023-04-25T01:10:00.559Z,0
2023-04-25T01:15:00.474Z,0
2023-04-25T01:20:00.570Z,0
2023-04-25T01:35:00.529Z,0
2023-04-25T01:40:00.488Z,0
2023-04-25T01:45:00.524Z,0
2023-04-25T01:50:00.518Z,0
2023-04-25T01:55:00.580Z,0
2023-04-25T02:00:00.664Z,0
2023-04-25T02:05:00.582Z,0
2023-04-25T02:10:00.582Z,0
2023-04-25T02:15:00.516Z,0
2023-04-25T02:20:00.558Z,0
2023-04-25T02:25:00.488Z,0
2023-04-25T02:30:00.501Z,0
2023-04-25T02:35:00.660Z,0
2023-04-25T02:40:00.459Z,0
2023-04-25T02:45:00.518Z,0
2023-04-25T02:50:00.540Z,0
2023-04-25T02:55:00.562Z,0
2023-04-25T03:00:00.476Z,0
2023-04-25T03:05:00.551Z,0
2023-04-25T03:10:00.517Z,0
2023-04-25T03:15:00.896Z,0
2023-04-25T03:20:00.744Z,0
2023-04-25T03:25:00.672Z,0
2023-04-25T03:30:00.739Z,0
2023-04-25T03:35:00.518Z,0
2023-04-25T03:40:00.600Z,0
2023-04-25T03:45:00.692Z,0
2023-04-25T03:50:00.615Z,0
2023-04-25T03:55:00.486Z,0
2023-04-25T04:00:00.627Z,7
2023-04-25T04:05:00.733Z,14
2023-04-25T04:10:00.504Z,21
2023-04-25T04:15:00.495Z,49
2023-04-25T04:20:00.818Z,97
2023-04-25T04:25:00.501Z,116
2023-04-25T04:30:00.488Z,137
2023-04-25T04:35:00.615Z,192
2023-04-25T04:40:00.582Z,447
2023-04-25T04:45:00.497Z,447
2023-04-25T04:50:00.565Z,269
2023-04-25T04:55:00.546Z,380
2023-04-25T05:00:00.512Z,193
2023-04-25T05:05:00.734Z,137
2023-04-25T05:10:00.468Z,192
2023-04-25T05:15:00.568Z,325
2023-04-25T05:20:00.481Z,383
2023-04-25T05:25:00.583Z,454
2023-04-25T05:30:00.508Z,580
2023-04-25T05:35:00.793Z,657
2023-04-25T05:40:00.513Z,741
2023-04-25T05:45:00.526Z,834
2023-04-25T05:50:00.667Z,1353
2023-04-25T05:55:00.607Z,1716
2023-04-25T06:00:00.697Z,2181
2023-04-25T06:05:00.687Z,2766
2023-04-25T06:10:00.738Z,1886
2023-04-25T06:15:00.456Z,1142
2023-04-25T06:20:00.632Z,1521
2023-04-25T06:25:00.593Z,1853
2023-04-25T06:30:00.624Z,2085
2023-04-25T06:35:00.494Z,2344
2023-04-25T06:40:00.647Z,4348
2023-04-25T06:45:00.761Z,3850
2023-04-25T06:50:00.637Z,3421
2023-04-25T06:55:00.636Z,4887
2023-04-25T07:00:02.295Z,6209
2023-04-25T07:05:00.463Z,6992
2023-04-25T07:10:00.699Z,6992
2023-04-25T07:15:00.704Z,30896
2023-04-25T07:20:00.553Z,42570
2023-04-25T07:25:00.675Z,8553
2023-04-25T07:30:00.628Z,10224
2023-04-25T07:35:00.610Z,39637
2023-04-25T07:40:00.587Z,17171
2023-04-25T07:45:00.683Z,25645
2023-04-25T07:50:00.546Z,7847
2023-04-25T07:55:00.482Z,1217
2023-04-25T08:00:00.551Z,1217
2023-04-25T08:05:00.903Z,2879
2023-04-25T08:10:00.596Z,5994
2023-04-25T08:15:00.520Z,13759
2023-04-25T08:20:00.502Z,22065
2023-04-25T08:25:00.617Z,21908
2023-04-25T08:30:00.570Z,77339
2023-04-25T08:35:00.602Z,70486
2023-04-25T08:40:00.617Z,63885
2023-04-25T08:45:05.448Z,71895
2023-04-25T08:50:00.592Z,37584
2023-04-25T08:55:00.528Z,42855
2023-04-25T09:00:00.553Z,8882
2023-04-25T09:05:00.567Z,37610
2023-04-25T09:10:00.695Z,6037
2023-04-25T09:15:00.598Z,4166
2023-04-25T09:20:00.507Z,7725
2023-04-25T09:25:00.499Z,63753
2023-04-25T09:30:00.543Z,37179
2023-04-25T09:35:00.570Z,55132
2023-04-25T09:40:00.494Z,55259
2023-04-25T09:45:00.513Z,7129
2023-04-25T09:50:00.651Z,55322
2023-04-25T09:55:00.679Z,54651
2023-04-25T10:00:00.601Z,6630
2023-04-25T10:05:00.573Z,3545
2023-04-25T10:10:00.521Z,5123
2023-04-25T10:15:00.557Z,3975
2023-04-25T10:20:00.739Z,4469
2023-04-25T10:25:00.589Z,5707
2023-04-25T10:30:00.608Z,13740
2023-04-25T10:35:00.586Z,10014
2023-04-25T10:40:00.745Z,10014
2023-04-25T10:45:00.575Z,23856
2023-04-25T10:50:00.547Z,37471
2023-04-25T10:55:00.551Z,16804
2023-04-25T11:00:00.651Z,5617
2023-04-25T11:05:00.692Z,7208
2023-04-25T11:10:00.750Z,7208
2023-04-25T11:15:00.574Z,24060
2023-04-25T11:20:00.585Z,21577
2023-04-25T11:25:00.538Z,20744
2023-04-25T11:30:00.571Z,9596
2023-04-25T11:35:00.482Z,15063
2023-04-25T11:40:00.725Z,6428
2023-04-25T11:45:00.476Z,3988
2023-04-25T11:50:00.519Z,9404
2023-04-25T11:55:00.536Z,6926
2023-04-25T12:00:00.631Z,3360
2023-04-25T12:05:11.749Z,7905
2023-04-25T12:10:00.548Z,7892
2023-04-25T12:15:00.691Z,7018
2023-04-25T12:20:00.583Z,7015
2023-04-25T12:25:00.605Z,7734
2023-04-25T12:30:00.526Z,8704
2023-04-25T12:35:00.559Z,7408
2023-04-25T12:40:00.537Z,5785
2023-04-25T12:45:00.558Z,6766
2023-04-25T12:50:00.742Z,7960
2023-04-25T12:55:00.511Z,4931
2023-04-25T13:00:00.641Z,4924
2023-04-25T13:05:00.577Z,8241
2023-04-25T13:10:00.502Z,8488
2023-04-25T13:15:00.620Z,6272
2023-04-25T13:20:00.524Z,4944
2023-04-25T13:25:00.461Z,5660
2023-04-25T13:30:00.616Z,8045
2023-04-25T13:35:01.461Z,9502
2023-04-25T13:40:00.628Z,6644
2023-04-25T13:45:00.681Z,5851
2023-04-25T13:50:00.708Z,5851
2023-04-25T13:55:00.539Z,5248
2023-04-25T14:00:00.624Z,3186
2023-04-25T14:05:00.609Z,3919
2023-04-25T14:10:00.536Z,4988
2023-04-25T14:15:00.700Z,6342
2023-04-25T14:20:00.498Z,3499
2023-04-25T14:25:00.662Z,2752
2023-04-25T14:30:00.733Z,3092
2023-04-25T14:35:00.727Z,4399
2023-04-25T14:40:00.711Z,4958
2023-04-25T14:45:00.557Z,6794
2023-04-25T14:50:00.662Z,6936
2023-04-25T14:55:00.733Z,5732
2023-04-25T15:00:00.665Z,5559
2023-04-25T15:05:01.024Z,3843
2023-04-25T15:10:00.657Z,5324
2023-04-25T15:15:00.712Z,5253
2023-04-25T15:20:00.780Z,5225
2023-04-25T15:25:00.645Z,6767
2023-04-25T15:30:00.678Z,6016
2023-04-25T15:35:00.534Z,6766
2023-04-25T15:40:00.650Z,3895
2023-04-25T15:45:00.796Z,5458
2023-04-25T15:50:00.536Z,4577
2023-04-25T15:55:00.534Z,4577
2023-04-25T16:00:00.984Z,4577
2023-04-25T16:05:00.913Z,4577
2023-04-25T16:10:00.573Z,4577
2023-04-25T16:15:00.620Z,4577
2023-04-25T16:20:00.644Z,2252
2023-04-25T16:25:00.613Z,2252
2023-04-25T16:30:00.643Z,4206
2023-04-25T16:35:00.471Z,3087
2023-04-25T16:40:00.949Z,3117
2023-04-25T16:45:00.635Z,3654
2023-04-25T16:50:00.639Z,3499
2023-04-25T16:55:00.493Z,3279
2023-04-25T17:00:00.616Z,3279
2023-04-25T17:05:00.685Z,4210
2023-04-25T17:10:00.737Z,5380
2023-04-25T17:15:00.840Z,5380
2023-04-25T17:20:00.637Z,4772
2023-04-25T17:25:00.897Z,2897
2023-04-25T17:30:00.517Z,1423
2023-04-25T17:35:00.831Z,1121
2023-04-25T17:40:00.542Z,1121
2023-04-25T17:45:00.646Z,885
2023-04-25T17:50:00.490Z,786
2023-04-25T17:55:00.593Z,786
2023-04-25T18:00:00.480Z,786
2023-04-25T18:05:00.561Z,786
2023-04-25T18:10:00.577Z,699
2023-04-25T18:15:01.029Z,621
2023-04-25T18:20:00.577Z,552
2023-04-25T18:25:00.637Z,469
2023-04-25T18:30:00.533Z,398
2023-04-25T18:35:00.512Z,243
2023-04-25T18:40:00.578Z,206
2023-04-25T18:45:00.532Z,147
2023-04-25T18:50:00.464Z,89
2023-04-25T18:55:00.508Z,63
2023-04-25T19:00:00.491Z,39
2023-04-25T19:05:00.625Z,25
2023-04-25T19:10:00.510Z,11
2023-04-25T19:15:00.646Z,11
2023-04-25T19:20:00.660Z,11
2023-04-25T19:25:09.747Z,11
2023-04-25T19:30:00.448Z,11
2023-04-25T19:35:00.674Z,11
